createdAt,value
2022-11-22T00:00:08.286Z,31.43
2022-11-22T00:02:41.917Z,32.37
2022-11-22T00:05:15.789Z,29.07
2022-11-22T00:07:50.893Z,27.93
2022-11-22T00:10:24.923Z,34.40
2022-11-22T00:12:58.503Z,33.23
2022-11-22T00:15:32.352Z,31.50
2022-11-22T00:18:05.875Z,33.43
2022-11-22T00:20:39.615Z,35.07
2022-11-22T00:23:14.778Z,31.30
2022-11-22T00:25:48.704Z,30.77
2022-11-22T00:28:22.271Z,33.27
2022-11-22T00:30:55.976Z,32.97
2022-11-22T00:33:29.467Z,34.63
2022-11-22T00:36:03.248Z,34.83
2022-11-22T00:38:38.186Z,30.73
2022-11-22T00:41:11.994Z,34.67
2022-11-22T00:43:45.538Z,31.10
2022-11-22T00:46:19.322Z,33.80
2022-11-22T00:48:52.931Z,31.60
2022-11-22T00:51:26.722Z,34.10
2022-11-22T00:54:01.673Z,35.80
2022-11-22T00:56:35.690Z,35.27
2022-11-22T00:59:09.352Z,35.93
2022-11-22T01:01:43.223Z,35.17
2022-11-22T01:04:16.828Z,34.40
2022-11-22T01:06:50.633Z,37.63
2022-11-22T01:09:25.629Z,34.87
2022-11-22T01:11:59.838Z,38.20
2022-11-22T01:14:33.447Z,34.20
2022-11-22T01:17:07.286Z,37.30
2022-11-22T01:19:41.152Z,34.23
2022-11-22T01:22:14.990Z,36.47
2022-11-22T01:24:50.004Z,42.27
2022-11-22T01:27:23.865Z,37.17
2022-11-22T01:29:57.418Z,34.77
2022-11-22T01:32:31.124Z,36.17
2022-11-22T01:35:04.831Z,38.90
2022-11-22T01:37:38.757Z,35.00
2022-11-22T01:40:13.723Z,35.50
2022-11-22T01:42:52.748Z,34.90
2022-11-22T01:45:51.259Z,40.60
2022-11-22T01:48:36.707Z,38.43
2022-11-22T01:51:21.931Z,35.00
2022-11-22T01:53:57.926Z,38.70
2022-11-22T01:56:34.063Z,41.83
2022-11-22T01:59:13.897Z,42.67
2022-11-22T02:01:47.605Z,37.73
2022-11-22T02:04:24.492Z,41.37
2022-11-22T02:07:02.754Z,38.03
2022-11-22T02:09:38.149Z,37.28
2022-11-22T02:12:14.248Z,37.40
2022-11-22T02:14:48.808Z,38.10
2022-11-22T02:17:22.641Z,38.00
2022-11-22T02:19:56.955Z,41.53
2022-11-22T02:22:37.289Z,39.43
2022-11-22T02:25:20.350Z,42.50
2022-11-22T02:27:55.361Z,38.37
2022-11-22T02:30:29.143Z,39.30
2022-11-22T02:33:02.738Z,46.20
2022-11-22T02:35:36.646Z,41.23
2022-11-22T02:38:16.191Z,43.23
2022-11-22T02:40:54.502Z,42.67
2022-11-22T02:43:32.754Z,45.45
2022-11-22T02:46:07.976Z,41.33
2022-11-22T02:48:42.539Z,40.20
2022-11-22T02:51:19.859Z,47.13
2022-11-22T02:53:53.683Z,37.50
2022-11-22T02:56:27.527Z,39.70
2022-11-22T02:59:02.474Z,43.17
2022-11-22T03:01:36.468Z,42.03
2022-11-22T03:04:10.133Z,45.03
2022-11-22T03:06:44.008Z,41.27
2022-11-22T03:09:17.447Z,40.30
2022-11-22T03:11:51.496Z,39.23
2022-11-22T03:14:26.535Z,37.50
2022-11-22T03:17:00.348Z,41.90
2022-11-22T03:19:33.952Z,38.60
2022-11-22T03:22:07.673Z,38.87
2022-11-22T03:24:41.456Z,37.90
2022-11-22T03:27:15.169Z,37.30
2022-11-22T03:29:50.644Z,39.47
2022-11-22T03:32:24.425Z,39.27
2022-11-22T03:34:57.904Z,35.70
2022-11-22T03:37:31.767Z,38.43
2022-11-22T03:40:06.409Z,43.03
2022-11-22T03:42:40.255Z,38.80
2022-11-22T03:45:15.319Z,37.73
2022-11-22T03:47:49.215Z,33.77
2022-11-22T03:50:22.837Z,39.97
2022-11-22T03:52:56.603Z,37.77
2022-11-22T03:55:30.215Z,37.83
2022-11-22T03:58:04.283Z,36.40
2022-11-22T04:00:39.121Z,36.27
2022-11-22T04:03:12.882Z,36.50
2022-11-22T04:05:46.763Z,35.07
2022-11-22T04:08:20.584Z,35.47
2022-11-22T04:10:54.267Z,39.73
2022-11-22T04:13:48.256Z,38.27
2022-11-22T04:16:22.216Z,37.80
2022-11-22T04:18:55.921Z,38.15
2022-11-22T04:21:34.442Z,36.03
2022-11-22T04:26:59.577Z,35.53
2022-11-22T04:29:33.508Z,34.57
2022-11-22T04:32:42.248Z,37.55
2022-11-22T04:35:18.529Z,35.00
2022-11-22T04:37:52.439Z,35.77
2022-11-22T04:40:26.281Z,37.50
2022-11-22T04:43:17.537Z,44.50
2022-11-22T04:45:51.890Z,35.00
2022-11-22T04:48:26.765Z,39.70
2022-11-22T04:51:18.077Z,39.73
2022-11-22T04:53:51.944Z,40.70
2022-11-22T04:56:25.795Z,38.67
2022-11-22T04:58:59.449Z,41.60
2022-11-22T05:01:33.438Z,38.07
2022-11-22T05:04:08.437Z,39.17
2022-11-22T05:06:42.237Z,38.90
2022-11-22T05:09:16.603Z,41.83
2022-11-22T05:11:50.751Z,39.17
2022-11-22T05:14:24.274Z,38.05
2022-11-22T05:16:57.987Z,38.08
2022-11-22T05:19:32.969Z,41.27
2022-11-22T05:22:06.803Z,42.67
2022-11-22T05:24:39.339Z,41.30
2022-11-22T05:27:13.181Z,38.85
2022-11-22T05:29:47.006Z,40.22
2022-11-22T05:32:21.263Z,38.05
2022-11-22T05:34:56.200Z,38.90
2022-11-22T05:37:30.195Z,39.00
2022-11-22T05:40:03.946Z,40.95
2022-11-22T05:42:38.330Z,42.40
2022-11-22T05:45:12.286Z,36.92
2022-11-22T05:47:46.879Z,35.10
2022-11-22T05:50:21.789Z,43.15
2022-11-22T05:52:55.719Z,40.83
2022-11-22T05:55:29.423Z,36.97
2022-11-22T05:58:03.482Z,36.95
2022-11-22T06:00:37.009Z,39.33
2022-11-22T06:03:10.770Z,39.45
2022-11-22T06:05:51.983Z,40.37
2022-11-22T06:08:25.829Z,41.03
2022-11-22T06:11:05.995Z,46.20
2022-11-22T06:13:42.116Z,40.77
2022-11-22T06:16:16.387Z,42.53
2022-11-22T06:18:50.530Z,39.67
2022-11-22T06:21:26.934Z,49.75
2022-11-22T06:24:00.813Z,41.97
2022-11-22T06:26:39.085Z,42.70
2022-11-22T06:29:13.340Z,45.95
2022-11-22T06:31:46.917Z,42.50
2022-11-22T06:34:20.722Z,42.30
2022-11-22T06:36:55.577Z,40.43
2022-11-22T06:39:29.655Z,47.22
2022-11-22T06:42:03.414Z,54.80
2022-11-22T06:44:37.279Z,50.92
2022-11-22T06:47:10.888Z,44.92
2022-11-22T06:49:45.350Z,45.28
2022-11-22T06:52:20.258Z,46.07
2022-11-22T06:54:54.134Z,43.28
2022-11-22T06:57:27.897Z,46.47
2022-11-22T07:00:01.842Z,43.65
2022-11-22T07:02:35.747Z,45.65
2022-11-22T07:05:24.998Z,48.65
2022-11-22T07:08:07.864Z,46.38
2022-11-22T07:10:46.081Z,46.28
2022-11-22T07:13:19.898Z,52.08
2022-11-22T07:15:57.644Z,45.00
2022-11-22T07:18:31.612Z,45.28
2022-11-22T07:21:12.474Z,47.55
2022-11-22T07:23:50.333Z,53.83
2022-11-22T07:26:26.133Z,43.78
2022-11-22T07:29:00.007Z,53.60
2022-11-22T07:31:34.902Z,51.30
2022-11-22T07:34:08.852Z,52.63
2022-11-22T07:36:42.864Z,52.33
2022-11-22T07:39:18.331Z,48.42
2022-11-22T07:41:52.506Z,52.53
2022-11-22T07:44:26.311Z,49.43
2022-11-22T07:47:00.588Z,48.90
2022-11-22T07:49:34.348Z,49.38
2022-11-22T07:52:08.396Z,45.67
2022-11-22T07:54:45.039Z,47.53
2022-11-22T07:57:19.085Z,53.33
2022-11-22T07:59:52.984Z,46.97
2022-11-22T08:02:27.619Z,47.63
2022-11-22T08:05:01.945Z,48.90
2022-11-22T08:07:36.122Z,48.33
2022-11-22T08:10:11.495Z,48.55
2022-11-22T08:12:45.807Z,50.10
2022-11-22T08:15:19.579Z,49.33
2022-11-22T08:17:53.791Z,48.53
2022-11-22T08:20:27.710Z,46.33
2022-11-22T08:23:01.608Z,51.42
2022-11-22T08:25:36.789Z,43.85
2022-11-22T08:28:10.934Z,50.28
2022-11-22T08:30:44.697Z,45.90
2022-11-22T08:33:18.720Z,53.25
2022-11-22T08:35:52.410Z,45.70
2022-11-22T08:38:27.971Z,48.63
2022-11-22T08:41:04.011Z,46.13
2022-11-22T08:43:38.048Z,48.53
2022-11-22T08:46:11.951Z,48.63
2022-11-22T08:48:46.380Z,50.47
2022-11-22T08:51:19.928Z,48.88
2022-11-22T08:53:53.549Z,47.23
2022-11-22T08:56:28.738Z,48.15
2022-11-22T08:59:02.749Z,49.25
2022-11-22T09:01:36.561Z,49.67
2022-11-22T09:04:10.714Z,44.70
2022-11-22T09:09:38.585Z,47.90
2022-11-22T09:12:13.590Z,47.33
2022-11-22T09:14:48.634Z,51.45
2022-11-22T09:17:22.107Z,46.20
2022-11-22T09:19:55.815Z,49.72
2022-11-22T09:22:29.274Z,47.17
2022-11-22T09:25:03.066Z,45.97
2022-11-22T09:27:37.862Z,46.15
2022-11-22T09:30:12.165Z,46.00
2022-11-22T09:32:46.005Z,48.92
2022-11-22T09:35:20.226Z,47.60
2022-11-22T09:37:53.741Z,46.17
2022-11-22T09:40:27.467Z,45.50
2022-11-22T09:43:14.104Z,43.72
2022-11-22T09:46:10.870Z,47.55
2022-11-22T09:49:02.262Z,43.65
2022-11-22T09:51:41.447Z,45.20
2022-11-22T09:54:19.396Z,43.10
2022-11-22T09:56:56.677Z,47.40
2022-11-22T09:59:34.072Z,46.10
2022-11-22T10:02:18.867Z,44.55
2022-11-22T10:04:57.190Z,44.17
2022-11-22T10:07:36.226Z,48.40
2022-11-22T10:10:16.018Z,43.03
2022-11-22T10:12:53.909Z,43.80
2022-11-22T10:15:38.926Z,50.53
2022-11-22T10:18:20.682Z,44.80
2022-11-22T10:20:54.719Z,43.85
2022-11-22T10:23:28.902Z,41.78
2022-11-22T10:26:06.943Z,41.45
2022-11-22T10:28:49.549Z,40.83
2022-11-22T10:31:31.057Z,44.13
2022-11-22T10:34:12.593Z,44.15
2022-11-22T10:36:51.861Z,44.00
2022-11-22T10:39:41.172Z,47.20
2022-11-22T10:42:31.957Z,48.50
2022-11-22T10:45:15.399Z,49.85
2022-11-22T10:48:02.802Z,46.97
2022-11-22T10:50:50.834Z,44.90
2022-11-22T10:53:34.416Z,42.33
2022-11-22T10:56:17.725Z,43.92
2022-11-22T10:59:03.470Z,44.42
2022-11-22T11:01:44.519Z,49.03
2022-11-22T11:04:21.169Z,46.20
2022-11-22T11:07:14.072Z,49.83
2022-11-22T11:12:49.510Z,50.00
2022-11-22T11:15:36.851Z,42.27
2022-11-22T11:18:16.374Z,43.92
2022-11-22T11:20:52.715Z,44.83
2022-11-22T11:23:26.406Z,43.35
2022-11-22T11:26:18.495Z,41.13
2022-11-22T11:28:52.448Z,37.88
2022-11-22T11:31:43.999Z,42.95
2022-11-22T11:34:22.849Z,47.80
2022-11-22T11:36:59.447Z,46.25
2022-11-22T11:39:34.650Z,42.40
2022-11-22T11:42:29.941Z,43.80
2022-11-22T11:45:27.919Z,44.70
2022-11-22T11:48:01.442Z,48.03
2022-11-22T11:50:35.085Z,42.65
2022-11-22T11:53:23.654Z,45.20
2022-11-22T11:58:30.639Z,48.40
2022-11-22T12:01:11.695Z,49.80
2022-11-22T12:03:52.950Z,42.83
2022-11-22T12:06:31.315Z,45.25
2022-11-22T12:09:30.082Z,44.75
2022-11-22T12:12:13.857Z,45.60
2022-11-22T12:15:10.611Z,49.67
2022-11-22T12:17:53.932Z,45.72
2022-11-22T12:20:36.561Z,42.17
2022-11-22T12:23:18.862Z,44.15
2022-11-22T12:25:56.567Z,46.42
2022-11-22T12:28:31.585Z,42.23
2022-11-22T12:31:14.841Z,48.42
2022-11-22T12:33:54.105Z,41.72
2022-11-22T12:36:34.719Z,41.95
2022-11-22T12:39:16.463Z,42.47
2022-11-22T12:41:55.901Z,48.20
2022-11-22T12:44:35.462Z,48.58
2022-11-22T12:47:13.316Z,48.88
2022-11-22T12:49:50.258Z,44.17
2022-11-22T12:52:29.435Z,50.25
2022-11-22T12:55:07.079Z,41.42
2022-11-22T12:57:46.824Z,43.20
2022-11-22T13:00:22.985Z,49.05
2022-11-22T13:03:02.370Z,39.78
2022-11-22T13:05:42.290Z,44.90
2022-11-22T13:08:20.070Z,47.17
2022-11-22T13:10:57.989Z,44.80
2022-11-22T13:13:37.257Z,46.08
2022-11-22T13:16:12.749Z,44.50
2022-11-22T13:18:51.854Z,50.50
2022-11-22T13:21:32.033Z,49.53
2022-11-22T13:24:28.580Z,50.15
2022-11-22T13:27:10.764Z,46.30
2022-11-22T13:29:47.635Z,45.78
2022-11-22T13:32:23.843Z,42.40
2022-11-22T13:35:04.271Z,46.15
2022-11-22T13:37:41.527Z,45.03
2022-11-22T13:40:26.177Z,42.22
2022-11-22T13:43:34.189Z,45.00
2022-11-22T13:46:54.787Z,46.20
2022-11-22T13:49:49.082Z,48.03
2022-11-22T13:52:46.709Z,44.67
2022-11-22T13:55:40.193Z,48.40
2022-11-22T13:58:52.839Z,48.28
2022-11-22T14:02:01.567Z,51.30
2022-11-22T14:04:43.721Z,49.78
2022-11-22T14:07:34.402Z,41.50
2022-11-22T14:10:28.771Z,41.55
2022-11-22T14:13:15.257Z,47.25
2022-11-22T14:15:58.797Z,54.75
2022-11-22T14:18:46.980Z,47.45
2022-11-22T14:21:41.874Z,48.00
2022-11-22T14:24:26.433Z,44.97
2022-11-22T14:27:11.545Z,49.78
2022-11-22T14:30:19.792Z,45.30
2022-11-22T14:33:01.634Z,46.45
2022-11-22T14:35:38.393Z,47.53
2022-11-22T14:38:40.224Z,47.63
2022-11-22T14:41:46.666Z,46.60
2022-11-22T14:44:22.310Z,44.42
2022-11-22T14:47:00.166Z,50.72
2022-11-22T14:49:42.064Z,49.22
2022-11-22T14:52:22.731Z,48.38
2022-11-22T14:54:59.353Z,55.70
2022-11-22T14:57:36.732Z,48.95
2022-11-22T15:00:19.353Z,48.38
2022-11-22T15:03:30.439Z,50.05
2022-11-22T15:09:10.826Z,50.00
2022-11-22T15:09:48.940Z,49.58
2022-11-22T15:12:42.616Z,51.08
2022-11-22T15:57:35.957Z,50.22
2022-11-22T16:00:19.810Z,46.35
2022-11-22T16:02:56.882Z,47.63
2022-11-22T16:06:09.510Z,44.08
2022-11-22T16:08:32.383Z,45.22
2022-11-22T16:11:07.011Z,47.50
2022-11-22T16:13:42.565Z,46.05
2022-11-22T16:16:21.874Z,47.80
2022-11-22T16:19:20.551Z,45.60
2022-11-22T16:21:58.156Z,45.83
2022-11-22T16:24:32.884Z,52.88
2022-11-22T16:27:16.280Z,48.88
2022-11-22T16:29:53.271Z,49.72
2022-11-22T16:32:26.931Z,47.13
2022-11-22T16:35:27.457Z,47.53
2022-11-22T16:37:54.485Z,53.08
2022-11-22T16:40:28.273Z,52.92
2022-11-22T16:43:06.784Z,46.63
2022-11-22T16:45:45.048Z,50.92
2022-11-22T16:48:35.590Z,46.13
2022-11-22T16:51:14.218Z,48.63
2022-11-22T16:53:48.971Z,53.67
2022-11-22T16:56:24.236Z,53.05
2022-11-22T16:58:58.853Z,51.25
2022-11-22T17:01:35.650Z,49.65
2022-11-22T17:04:20.832Z,46.08
2022-11-22T17:06:55.254Z,53.47
2022-11-22T17:09:29.168Z,50.42
2022-11-22T17:12:03.361Z,48.55
2022-11-22T17:14:36.873Z,45.53
2022-11-22T17:17:13.705Z,51.03
2022-11-22T17:19:53.136Z,48.25
2022-11-22T17:22:27.571Z,45.00
2022-11-22T17:25:01.373Z,54.72
2022-11-22T17:27:36.422Z,53.40
2022-11-22T17:30:12.169Z,53.63
2022-11-22T17:32:47.268Z,54.30
2022-11-22T17:35:20.841Z,50.10
2022-11-22T17:37:55.615Z,53.72
2022-11-22T17:40:29.234Z,49.67
2022-11-22T17:43:03.378Z,51.20
2022-11-22T17:45:42.438Z,48.53
2022-11-22T17:48:18.245Z,53.78
2022-11-22T17:50:51.773Z,53.22
2022-11-22T17:53:25.720Z,53.10
2022-11-22T17:56:14.468Z,47.55
2022-11-22T17:58:48.744Z,55.55
2022-11-22T18:01:23.797Z,56.08
2022-11-22T18:03:59.073Z,58.25
2022-11-22T18:06:32.525Z,53.40
2022-11-22T18:09:06.387Z,52.13
2022-11-22T18:11:40.027Z,54.28
2022-11-22T18:14:14.262Z,52.58
2022-11-22T18:16:47.808Z,50.50
2022-11-22T18:19:23.226Z,55.00
2022-11-22T18:21:56.789Z,50.72
2022-11-22T18:24:30.624Z,54.90
2022-11-22T18:27:04.311Z,56.47
2022-11-22T18:29:42.481Z,52.08
2022-11-22T18:34:51.792Z,51.28
2022-11-22T18:37:25.884Z,53.10
2022-11-22T18:39:59.797Z,52.65
2022-11-22T18:42:33.556Z,52.75
2022-11-22T18:45:08.169Z,54.10
2022-11-22T18:47:41.835Z,58.35
2022-11-22T18:50:17.016Z,59.53
2022-11-22T18:52:50.567Z,50.53
2022-11-22T18:55:24.295Z,53.55
2022-11-22T18:57:58.172Z,53.70
2022-11-22T19:00:31.998Z,55.50
2022-11-22T19:03:06.083Z,55.10
2022-11-22T19:05:41.556Z,56.17
2022-11-22T19:08:15.001Z,58.25
2022-11-22T19:10:56.897Z,57.20
2022-11-22T19:13:33.099Z,54.03
2022-11-22T19:16:07.635Z,56.03
2022-11-22T19:18:43.197Z,52.42
2022-11-22T19:21:21.034Z,52.75
2022-11-22T19:23:55.446Z,52.28
2022-11-22T19:26:29.523Z,53.00
2022-11-22T19:29:04.743Z,56.17
2022-11-22T19:31:38.517Z,55.97
2022-11-22T19:34:12.359Z,59.60
2022-11-22T19:36:47.635Z,55.83
2022-11-22T19:39:21.299Z,53.75
2022-11-22T19:41:55.193Z,56.58
2022-11-22T19:44:28.795Z,57.70
2022-11-22T19:47:02.524Z,54.97
2022-11-22T19:49:35.982Z,53.63
2022-11-22T19:52:11.186Z,55.08
2022-11-22T19:54:44.668Z,51.63
2022-11-22T19:57:18.625Z,55.55
2022-11-22T19:59:55.868Z,59.20
2022-11-22T20:02:33.562Z,55.40
2022-11-22T20:05:07.387Z,50.72
2022-11-22T20:07:42.848Z,53.03
2022-11-22T20:10:16.849Z,53.40
2022-11-22T20:12:51.171Z,56.25
2022-11-22T20:15:24.681Z,50.53
2022-11-22T20:17:58.755Z,57.10
2022-11-22T20:20:32.254Z,55.90
2022-11-22T20:23:07.435Z,58.47
2022-11-22T20:25:41.559Z,57.40
2022-11-22T20:28:15.783Z,62.08
2022-11-22T20:30:49.240Z,49.30
2022-11-22T20:33:22.895Z,55.67
2022-11-22T20:36:02.672Z,57.28
2022-11-22T20:38:45.621Z,57.50
2022-11-22T20:41:20.904Z,56.10
2022-11-22T20:43:55.562Z,54.72
2022-11-22T20:46:29.909Z,55.05
2022-11-22T20:49:03.644Z,58.67
2022-11-22T20:51:39.616Z,55.08
2022-11-22T20:54:14.847Z,53.05
2022-11-22T20:56:48.449Z,55.35
2022-11-22T20:59:22.125Z,54.20
2022-11-22T21:01:55.740Z,54.65
2022-11-22T21:04:29.637Z,57.97
2022-11-22T21:07:03.281Z,58.85
2022-11-22T21:09:38.415Z,51.15
2022-11-22T21:12:11.962Z,54.92
2022-11-22T21:14:45.746Z,52.65
2022-11-22T21:17:41.965Z,53.40
2022-11-22T21:20:13.573Z,58.63
2022-11-22T21:22:47.137Z,53.15
2022-11-22T21:25:22.473Z,57.42
2022-11-22T21:27:56.186Z,58.30
2022-11-22T21:30:29.891Z,53.28
2022-11-22T21:33:03.445Z,53.95
2022-11-22T21:35:37.167Z,53.05
2022-11-22T21:38:10.704Z,55.72
2022-11-22T21:40:53.814Z,52.42
2022-11-22T21:43:29.922Z,51.78
2022-11-22T21:46:03.639Z,54.95
2022-11-22T21:48:37.165Z,52.78
2022-11-22T21:51:11.251Z,53.22
2022-11-22T21:53:44.799Z,55.90
2022-11-22T21:56:20.036Z,54.40
2022-11-22T21:58:53.638Z,51.15
2022-11-22T22:01:27.882Z,55.75
2022-11-22T22:04:01.506Z,52.15
2022-11-22T22:06:35.314Z,51.17
2022-11-22T22:09:08.875Z,54.20
2022-11-22T22:11:47.591Z,57.03
2022-11-22T22:14:21.118Z,47.67
2022-11-22T22:16:54.792Z,52.45
2022-11-22T22:19:28.442Z,48.78
2022-11-22T22:22:02.726Z,48.92
2022-11-22T22:24:36.271Z,51.30
2022-11-22T22:27:11.320Z,46.95
2022-11-22T22:29:44.917Z,48.90
2022-11-22T22:32:18.752Z,47.15
2022-11-22T22:34:52.280Z,48.35
2022-11-22T22:37:25.970Z,46.67
2022-11-22T22:39:59.443Z,46.47
2022-11-22T22:42:35.639Z,48.45
2022-11-22T22:45:10.907Z,46.70
2022-11-22T22:47:44.892Z,47.95
2022-11-22T22:50:18.536Z,45.25
2022-11-22T22:52:52.233Z,47.88
2022-11-22T22:55:25.739Z,43.80
2022-11-22T22:58:01.935Z,45.70
2022-11-22T23:00:35.587Z,50.35
2022-11-22T23:03:11.724Z,48.15
2022-11-22T23:05:45.467Z,42.95
2022-11-22T23:08:19.217Z,50.60
2022-11-22T23:10:52.670Z,47.00
2022-11-22T23:13:27.703Z,44.03
2022-11-22T23:16:01.402Z,43.90
2022-11-22T23:18:36.957Z,43.60
2022-11-22T23:21:13.017Z,40.70
2022-11-22T23:23:46.744Z,48.13
2022-11-22T23:26:20.219Z,43.83
2022-11-22T23:28:55.434Z,45.70
2022-11-22T23:31:29.017Z,41.92
2022-11-22T23:34:03.330Z,41.60
2022-11-22T23:36:40.678Z,42.33
2022-11-22T23:39:14.874Z,40.22
2022-11-22T23:41:48.512Z,42.65
2022-11-22T23:44:23.581Z,44.97
2022-11-22T23:46:57.055Z,42.85
2022-11-22T23:49:31.036Z,46.72
2022-11-22T23:52:05.042Z,45.42
2022-11-22T23:54:38.808Z,42.15
2022-11-22T23:57:12.404Z,45.70
2022-11-22T23:59:47.446Z,40.05
